createdAt,value
2023-02-02T00:02:31.784Z,25.3822
2023-02-02T00:17:33.751Z,25.415
2023-02-02T00:32:35.683Z,25.9251
2023-02-02T00:47:37.601Z,25.675
2023-02-02T01:02:39.525Z,25.5481
2023-02-02T01:17:41.414Z,24.297
2023-02-02T01:32:43.390Z,24.0395
2023-02-02T01:47:45.299Z,23.5393
2023-02-02T02:02:47.234Z,23.5424
2023-02-02T02:17:49.151Z,23.3183
2023-02-02T02:32:51.077Z,20.3141
2023-02-02T02:47:53.041Z,23.7535
2023-02-02T03:02:55.001Z,23.1425
2023-02-02T03:17:57.042Z,23.7925
2023-02-02T03:32:58.964Z,23.9974
2023-02-02T03:48:00.891Z,24.1373
2023-02-02T04:03:02.832Z,24.3385
2023-02-02T04:18:04.765Z,24.0723
2023-02-02T04:33:06.746Z,24.1732
2023-02-02T04:48:08.651Z,24.1373
2023-02-02T05:03:10.579Z,23.8482
2023-02-02T05:18:12.561Z,24.1113
2023-02-02T05:33:14.479Z,24.4462
2023-02-02T05:48:16.443Z,24.6963
2023-02-02T06:03:18.434Z,24.2902
2023-02-02T06:18:20.371Z,24.6641
2023-02-02T06:33:22.398Z,24.1014
2023-02-02T06:48:24.569Z,23.3765
2023-02-02T07:03:26.481Z,22.7426
2023-02-02T07:18:28.373Z,21.8945
2023-02-02T07:33:30.336Z,21.4779
2023-02-02T07:48:32.289Z,19.9866
2023-02-02T08:03:34.249Z,20.5388
2023-02-02T08:18:36.174Z,19.8399
2023-02-02T08:33:39.563Z,20.584
2023-02-02T08:48:41.606Z,19.518
2023-02-02T09:03:43.548Z,20.4701
2023-02-02T09:18:45.517Z,18.8711
2023-02-02T09:33:47.383Z,19.232
2023-02-02T09:48:49.293Z,19.1701
2023-02-02T10:03:51.413Z,17.9382
2023-02-02T10:18:53.375Z,19.8913
2023-02-02T10:33:55.355Z,18.5461
2023-02-02T10:48:58.818Z,19.8325
2023-02-02T11:04:01.863Z,18.8773
2023-02-02T11:19:03.806Z,19.3713
2023-02-02T11:34:05.777Z,19.2834
2023-02-02T11:49:07.698Z,18.1103
2023-02-02T12:04:09.665Z,19.1274
2023-02-02T12:19:11.594Z,17.5773
2023-02-02T12:34:13.518Z,19.0463
2023-02-02T12:49:15.506Z,17.9865
2023-02-02T13:04:17.454Z,18.8773
2023-02-02T13:19:19.337Z,17.7754
2023-02-02T13:34:21.348Z,18.8154
2023-02-02T13:49:23.258Z,18.9095
2023-02-02T14:04:25.115Z,18.9423
2023-02-02T14:19:26.975Z,18.6693
2023-02-02T14:34:28.887Z,18.7764
2023-02-02T14:49:30.832Z,18.3833
2023-02-02T15:04:32.686Z,17.9766
2023-02-02T15:19:34.547Z,19.6542
2023-02-02T15:34:36.414Z,19.7093
2023-02-02T15:49:38.344Z,20.3042
2023-02-02T16:04:40.159Z,20.2943
2023-02-02T16:19:42.035Z,19.7972
2023-02-02T16:34:46.348Z,18.9231
2023-02-02T16:49:48.624Z,18.7213
2023-02-02T17:04:50.496Z,19.0983
2023-02-02T17:19:52.350Z,18.361
2023-02-02T17:34:54.246Z,18.8934
2023-02-02T17:49:56.091Z,19.2475
2023-02-02T18:04:57.984Z,18.9064
2023-02-02T18:19:59.900Z,18.9194
2023-02-02T18:35:01.853Z,18.6204
2023-02-02T18:50:03.745Z,18.6371
2023-02-02T19:05:05.617Z,17.9252
2023-02-02T19:20:07.553Z,18.7021
2023-02-02T19:35:09.400Z,18.0224
2023-02-02T19:50:11.301Z,19.3614
2023-02-02T20:05:13.159Z,18.6532
2023-02-02T20:20:14.984Z,19.3843
2023-02-02T20:35:16.847Z,18.5882
2023-02-02T20:50:18.691Z,19.2574
2023-02-02T21:05:20.569Z,19.0853
2023-02-02T21:20:22.506Z,19.1602
2023-02-02T21:35:24.358Z,19.0624
2023-02-02T21:50:26.532Z,19.2054
2023-02-02T22:05:28.526Z,18.985
2023-02-02T22:20:30.432Z,18.1431
2023-02-02T22:35:32.309Z,19.154
2023-02-02T22:50:34.205Z,17.932
2023-02-02T23:05:36.119Z,19.9334
2023-02-02T23:20:38.000Z,19.2314
2023-02-02T23:35:39.913Z,19.3292
2023-02-02T23:50:41.784Z,19.4753
